sensor_id;sensor_type;location;lat;lon;timestamp;P1;durP1;ratioP1;P2;durP2;ratioP2
50651;SDS011;66928;52.086;5.240;2023-01-16T07:09:33;5.4;;;2.31;;
50651;SDS011;66928;52.086;5.240;2023-01-16T07:11:11;5.11;;;2.31;;
50651;SDS011;66928;52.086;5.240;2023-01-16T07:12:48;6.2;;;2.4;;
50651;SDS011;66928;52.086;5.240;2023-01-16T07:22:46;3.8;;;2.0;;
50651;SDS011;66928;52.086;5.240;2023-01-16T07:24:24;4.41;;;2.0;;
50651;SDS011;66928;52.086;5.240;2023-01-16T07:26:04;4.1;;;2.0;;
50651;SDS011;66928;52.086;5.240;2023-01-16T07:27:44;3.7;;;1.8;;
50651;SDS011;66928;52.086;5.240;2023-01-16T07:29:24;4.7;;;1.9;;
50651;SDS011;66928;52.086;5.240;2023-01-16T07:31:03;4.8;;;2.1;;
50651;SDS011;66928;52.086;5.240;2023-01-16T07:34:22;5.11;;;2.0;;
50651;SDS011;66928;52.086;5.240;2023-01-16T07:35:58;4.3;;;1.9;;
50651;SDS011;66928;52.086;5.240;2023-01-16T07:37:35;4.5;;;1.9;;
50651;SDS011;66928;52.086;5.240;2023-01-16T07:40:49;3.9;;;1.8;;
50651;SDS011;66928;52.086;5.240;2023-01-16T07:42:26;3.3;;;1.5;;
50651;SDS011;66928;52.086;5.240;2023-01-16T07:44:03;5.4;;;1.7;;
50651;SDS011;66928;52.086;5.240;2023-01-16T07:45:40;4.91;;;1.9;;
50651;SDS011;66928;52.086;5.240;2023-01-16T07:48:56;3.9;;;1.6;;
50651;SDS011;66928;52.086;5.240;2023-01-16T07:50:32;3.9;;;1.8;;
50651;SDS011;66928;52.086;5.240;2023-01-16T07:52:09;2.21;;;1.5;;
50651;SDS011;66928;52.086;5.240;2023-01-16T07:55:23;4.1;;;1.8;;
50651;SDS011;66928;52.086;5.240;2023-01-16T07:57:00;4.5;;;1.7;;
50651;SDS011;66928;52.086;5.240;2023-01-16T07:58:41;4.2;;;1.8;;
50651;SDS011;66928;52.086;5.240;2023-01-16T08:00:19;4.5;;;1.8;;
50651;SDS011;66928;52.086;5.240;2023-01-16T08:03:33;5.7;;;1.8;;
50651;SDS011;66928;52.086;5.240;2023-01-16T08:05:09;2.6;;;1.6;;
50651;SDS011;66928;52.086;5.240;2023-01-16T08:06:46;2.9;;;1.5;;
50651;SDS011;66928;52.086;5.240;2023-01-16T08:10:02;4.2;;;1.7;;
50651;SDS011;66928;52.086;5.240;2023-01-16T08:11:46;4.2;;;1.7;;
50651;SDS011;66928;52.086;5.240;2023-01-16T08:13:23;3.9;;;1.6;;
50651;SDS011;66928;52.086;5.240;2023-01-16T08:15:00;3.9;;;1.6;;
50651;SDS011;66928;52.086;5.240;2023-01-16T08:18:14;4.8;;;1.7;;
50651;SDS011;66928;52.086;5.240;2023-01-16T08:19:51;4.8;;;1.7;;
50651;SDS011;66928;52.086;5.240;2023-01-16T08:21:29;3.1;;;1.7;;
50651;SDS011;66928;52.086;5.240;2023-01-16T08:24:43;3.3;;;1.4;;
50651;SDS011;66928;52.086;5.240;2023-01-16T08:26:19;3.1;;;1.5;;
50651;SDS011;66928;52.086;5.240;2023-01-16T08:27:55;2.8;;;1.7;;
50651;SDS011;66928;52.086;5.240;2023-01-16T08:29:32;2.6;;;1.6;;
50651;SDS011;66928;52.086;5.240;2023-01-16T08:32:49;3.2;;;1.6;;
50651;SDS011;66928;52.086;5.240;2023-01-16T08:34:27;3.9;;;1.7;;
50651;SDS011;66928;52.086;5.240;2023-01-16T08:36:04;5.5;;;2.1;;
50651;SDS011;66928;52.086;5.240;2023-01-16T08:39:25;3.3;;;1.8;;
50651;SDS011;66928;52.086;5.240;2023-01-16T08:41:03;3.7;;;1.6;;
50651;SDS011;66928;52.086;5.240;2023-01-16T08:51:29;3.7;;;1.9;;
50651;SDS011;66928;52.086;5.240;2023-01-16T08:53:07;2.5;;;1.7;;
50651;SDS011;66928;52.086;5.240;2023-01-16T08:54:44;2.4;;;1.8;;
50651;SDS011;66928;52.086;5.240;2023-01-16T08:57:59;3.5;;;1.8;;
50651;SDS011;66928;52.086;5.240;2023-01-16T08:59:36;2.4;;;1.9;;
50651;SDS011;66928;52.086;5.240;2023-01-16T09:01:15;3.1;;;1.8;;
50651;SDS011;66928;52.086;5.240;2023-01-16T09:04:33;2.9;;;1.9;;
50651;SDS011;66928;52.086;5.240;2023-01-16T09:06:11;3.6;;;1.9;;
50651;SDS011;66928;52.086;5.240;2023-01-16T09:07:48;3.9;;;1.8;;
50651;SDS011;66928;52.086;5.240;2023-01-16T09:09:26;2.9;;;1.7;;
50651;SDS011;66928;52.086;5.240;2023-01-16T09:15:15;4.5;;;1.9;;
50651;SDS011;66928;52.086;5.240;2023-01-16T09:16:52;3.8;;;2.0;;
50651;SDS011;66928;52.086;5.240;2023-01-16T09:18:28;3.8;;;2.0;;
50651;SDS011;66928;52.086;5.240;2023-01-16T09:20:05;4.61;;;2.0;;
50651;SDS011;66928;52.086;5.240;2023-01-16T09:23:18;4.2;;;2.0;;
50651;SDS011;66928;52.086;5.240;2023-01-16T09:24:55;3.2;;;2.0;;
50651;SDS011;66928;52.086;5.240;2023-01-16T09:26:32;3.0;;;2.0;;
50651;SDS011;66928;52.086;5.240;2023-01-16T09:28:08;4.1;;;2.31;;
50651;SDS011;66928;52.086;5.240;2023-01-16T09:31:21;2.31;;;2.0;;
50651;SDS011;66928;52.086;5.240;2023-01-16T09:32:57;3.4;;;2.31;;
50651;SDS011;66928;52.086;5.240;2023-01-16T09:34:33;3.3;;;2.21;;
50651;SDS011;66928;52.086;5.240;2023-01-16T09:37:46;6.1;;;3.7;;
50651;SDS011;66928;52.086;5.240;2023-01-16T09:39:23;3.9;;;2.31;;
50651;SDS011;66928;52.086;5.240;2023-01-16T09:40:59;4.8;;;2.31;;
50651;SDS011;66928;52.086;5.240;2023-01-16T09:45:25;4.3;;;2.21;;
50651;SDS011;66928;52.086;5.240;2023-01-16T09:47:05;3.4;;;2.5;;
50651;SDS011;66928;52.086;5.240;2023-01-16T09:50:29;4.0;;;2.5;;
50651;SDS011;66928;52.086;5.240;2023-01-16T09:58:43;3.0;;;2.0;;
50651;SDS011;66928;52.086;5.240;2023-01-16T10:00:36;3.2;;;2.0;;
50651;SDS011;66928;52.086;5.240;2023-01-16T10:02:16;4.41;;;2.1;;
50651;SDS011;66928;52.086;5.240;2023-01-16T10:03:57;4.0;;;2.4;;
50651;SDS011;66928;52.086;5.240;2023-01-16T10:05:52;2.5;;;1.8;;
50651;SDS011;66928;52.086;5.240;2023-01-16T10:09:38;2.5;;;1.9;;
50651;SDS011;66928;52.086;5.240;2023-01-16T10:11:28;4.0;;;2.0;;
50651;SDS011;66928;52.086;5.240;2023-01-16T10:13:18;4.0;;;1.9;;
50651;SDS011;66928;52.086;5.240;2023-01-16T10:15:14;3.6;;;1.7;;
50651;SDS011;66928;52.086;5.240;2023-01-16T10:17:03;2.31;;;1.4;;
50651;SDS011;66928;52.086;5.240;2023-01-16T10:18:54;2.8;;;1.7;;
50651;SDS011;66928;52.086;5.240;2023-01-16T10:20:43;2.5;;;1.7;;
50651;SDS011;66928;52.086;5.240;2023-01-16T10:22:34;2.0;;;1.5;;
50651;SDS011;66928;52.086;5.240;2023-01-16T10:26:10;2.0;;;1.7;;
50651;SDS011;66928;52.086;5.240;2023-01-16T10:27:57;3.6;;;1.7;;
50651;SDS011;66928;52.086;5.240;2023-01-16T10:29:47;2.9;;;1.6;;
50651;SDS011;66928;52.086;5.240;2023-01-16T10:31:29;4.7;;;2.21;;
50651;SDS011;66928;52.086;5.240;2023-01-16T10:33:12;3.7;;;1.9;;
50651;SDS011;66928;52.086;5.240;2023-01-16T10:36:42;2.9;;;2.0;;
50651;SDS011;66928;52.086;5.240;2023-01-16T10:38:30;3.4;;;1.9;;
50651;SDS011;66928;52.086;5.240;2023-01-16T10:40:14;3.5;;;2.0;;
50651;SDS011;66928;52.086;5.240;2023-01-16T10:50:14;3.4;;;1.9;;
50651;SDS011;66928;52.086;5.240;2023-01-16T10:51:51;3.4;;;2.0;;
50651;SDS011;66928;52.086;5.240;2023-01-16T10:55:06;3.2;;;2.1;;
50651;SDS011;66928;52.086;5.240;2023-01-16T10:56:45;4.7;;;2.31;;
50651;SDS011;66928;52.086;5.240;2023-01-16T10:58:23;2.6;;;2.0;;
50651;SDS011;66928;52.086;5.240;2023-01-16T11:01:44;3.0;;;2.7;;
50651;SDS011;66928;52.086;5.240;2023-01-16T11:03:26;3.5;;;3.0;;
50651;SDS011;66928;52.086;5.240;2023-01-16T11:05:25;4.1;;;3.4;;
50651;SDS011;66928;52.086;5.240;2023-01-16T11:07:20;4.91;;;4.3;;
50651;SDS011;66928;52.086;5.240;2023-01-16T11:09:00;5.11;;;4.3;;
50651;SDS011;66928;52.086;5.240;2023-01-16T11:10:39;6.2;;;4.7;;
50651;SDS011;66928;52.086;5.240;2023-01-16T11:18:48;5.6;;;5.11;;
50651;SDS011;66928;52.086;5.240;2023-01-16T11:20:25;3.9;;;3.5;;
50651;SDS011;66928;52.086;5.240;2023-01-16T11:22:10;3.9;;;3.5;;
50651;SDS011;66928;52.086;5.240;2023-01-16T11:23:59;4.3;;;3.2;;
50651;SDS011;66928;52.086;5.240;2023-01-16T11:25:39;3.7;;;3.3;;
50651;SDS011;66928;52.086;5.240;2023-01-16T11:28:58;4.0;;;3.0;;
50651;SDS011;66928;52.086;5.240;2023-01-16T11:30:36;4.7;;;2.8;;
50651;SDS011;66928;52.086;5.240;2023-01-16T11:32:18;3.7;;;2.8;;
50651;SDS011;66928;52.086;5.240;2023-01-16T11:34:01;3.2;;;2.8;;
50651;SDS011;66928;52.086;5.240;2023-01-16T11:35:50;3.0;;;2.7;;
50651;SDS011;66928;52.086;5.240;2023-01-16T11:39:05;3.2;;;2.9;;
50651;SDS011;66928;52.086;5.240;2023-01-16T11:40:50;3.7;;;3.2;;
50651;SDS011;66928;52.086;5.240;2023-01-16T11:46:20;3.3;;;3.0;;
50651;SDS011;66928;52.086;5.240;2023-01-16T11:48:33;3.8;;;3.1;;
50651;SDS011;66928;52.086;5.240;2023-01-16T11:50:21;3.9;;;3.5;;
50651;SDS011;66928;52.086;5.240;2023-01-16T11:52:11;4.7;;;4.3;;
50651;SDS011;66928;52.086;5.240;2023-01-16T11:53:49;4.3;;;3.7;;
50651;SDS011;66928;52.086;5.240;2023-01-16T11:55:30;3.5;;;3.2;;
50651;SDS011;66928;52.086;5.240;2023-01-16T11:57:17;4.2;;;3.6;;
50651;SDS011;66928;52.086;5.240;2023-01-16T11:59:12;3.9;;;3.5;;
50651;SDS011;66928;52.086;5.240;2023-01-16T12:01:09;5.2;;;4.0;;
50651;SDS011;66928;52.086;5.240;2023-01-16T12:06:01;5.8;;;4.1;;
50651;SDS011;66928;52.086;5.240;2023-01-16T12:07:50;4.91;;;4.0;;
50651;SDS011;66928;52.086;5.240;2023-01-16T12:09:43;5.2;;;3.4;;
50651;SDS011;66928;52.086;5.240;2023-01-16T12:11:33;4.0;;;3.6;;
50651;SDS011;66928;52.086;5.240;2023-01-16T12:14:42;3.3;;;3.0;;
50651;SDS011;66928;52.086;5.240;2023-01-16T12:16:27;3.4;;;3.1;;
50651;SDS011;66928;52.086;5.240;2023-01-16T12:18:18;2.9;;;2.6;;
50651;SDS011;66928;52.086;5.240;2023-01-16T12:20:08;3.2;;;2.9;;
50651;SDS011;66928;52.086;5.240;2023-01-16T12:21:56;3.3;;;2.9;;
50651;SDS011;66928;52.086;5.240;2023-01-16T12:25:55;2.9;;;2.4;;
50651;SDS011;66928;52.086;5.240;2023-01-16T12:27:44;2.6;;;2.4;;
50651;SDS011;66928;52.086;5.240;2023-01-16T12:29:33;2.9;;;2.6;;
50651;SDS011;66928;52.086;5.240;2023-01-16T12:31:52;2.8;;;2.5;;
50651;SDS011;66928;52.086;5.240;2023-01-16T12:33:57;4.2;;;2.9;;
50651;SDS011;66928;52.086;5.240;2023-01-16T12:35:51;3.0;;;2.7;;
50651;SDS011;66928;52.086;5.240;2023-01-16T12:37:42;5.3;;;4.3;;
50651;SDS011;66928;52.086;5.240;2023-01-16T12:39:54;2.9;;;2.6;;
50651;SDS011;66928;52.086;5.240;2023-01-16T12:43:31;4.61;;;3.0;;
50651;SDS011;66928;52.086;5.240;2023-01-16T12:45:24;2.8;;;2.5;;
50651;SDS011;66928;52.086;5.240;2023-01-16T12:47:19;3.9;;;3.0;;
50651;SDS011;66928;52.086;5.240;2023-01-16T12:49:18;3.4;;;2.31;;
50651;SDS011;66928;52.086;5.240;2023-01-16T12:51:11;2.4;;;2.21;;
50651;SDS011;66928;52.086;5.240;2023-01-16T12:55:07;2.4;;;2.21;;
50651;SDS011;66928;52.086;5.240;2023-01-16T12:57:08;2.1;;;1.9;;
50651;SDS011;66928;52.086;5.240;2023-01-16T12:59:20;2.5;;;2.1;;
50651;SDS011;66928;52.086;5.240;2023-01-16T13:01:04;3.2;;;2.1;;
50651;SDS011;66928;52.086;5.240;2023-01-16T13:02:48;5.0;;;3.3;;
50651;SDS011;66928;52.086;5.240;2023-01-16T13:04:33;2.5;;;1.9;;
50651;SDS011;66928;52.086;5.240;2023-01-16T13:06:15;2.0;;;1.8;;
50651;SDS011;66928;52.086;5.240;2023-01-16T13:07:59;4.41;;;2.31;;
50651;SDS011;66928;52.086;5.240;2023-01-16T13:13:48;5.9;;;2.0;;
50651;SDS011;66928;52.086;5.240;2023-01-16T13:15:29;2.5;;;2.1;;
50651;SDS011;66928;52.086;5.240;2023-01-16T13:17:11;4.41;;;2.31;;
50651;SDS011;66928;52.086;5.240;2023-01-16T13:18:54;2.1;;;1.9;;
50651;SDS011;66928;52.086;5.240;2023-01-16T13:20:36;3.2;;;2.0;;
50651;SDS011;66928;52.086;5.240;2023-01-16T13:23:58;3.1;;;1.9;;
50651;SDS011;66928;52.086;5.240;2023-01-16T13:25:41;3.2;;;1.9;;
50651;SDS011;66928;52.086;5.240;2023-01-16T13:27:22;1.8;;;1.7;;
50651;SDS011;66928;52.086;5.240;2023-01-16T13:29:14;2.9;;;2.4;;
50651;SDS011;66928;52.086;5.240;2023-01-16T13:30:59;2.9;;;1.7;;
50651;SDS011;66928;52.086;5.240;2023-01-16T13:34:25;2.1;;;1.9;;
50651;SDS011;66928;52.086;5.240;2023-01-16T13:36:08;1.8;;;1.5;;
50651;SDS011;66928;52.086;5.240;2023-01-16T13:38:12;2.0;;;1.6;;
50651;SDS011;66928;52.086;5.240;2023-01-16T13:40:50;1.9;;;1.7;;
50651;SDS011;66928;52.086;5.240;2023-01-16T13:45:47;2.31;;;1.6;;
50651;SDS011;66928;52.086;5.240;2023-01-16T13:47:29;1.6;;;1.5;;
50651;SDS011;66928;52.086;5.240;2023-01-16T13:49:12;2.4;;;1.6;;
50651;SDS011;66928;52.086;5.240;2023-01-16T13:50:56;1.8;;;1.5;;
50651;SDS011;66928;52.086;5.240;2023-01-16T13:52:35;2.1;;;1.7;;
50651;SDS011;66928;52.086;5.240;2023-01-16T13:54:18;2.1;;;1.5;;
50651;SDS011;66928;52.086;5.240;2023-01-16T13:56:02;1.9;;;1.8;;
50651;SDS011;66928;52.086;5.240;2023-01-16T13:59:54;1.8;;;1.5;;
50651;SDS011;66928;52.086;5.240;2023-01-16T14:01:35;2.7;;;1.9;;
50651;SDS011;66928;52.086;5.240;2023-01-16T14:03:28;2.6;;;1.7;;
50651;SDS011;66928;52.086;5.240;2023-01-16T14:05:15;2.4;;;1.9;;
50651;SDS011;66928;52.086;5.240;2023-01-16T14:09:21;2.6;;;2.0;;
50651;SDS011;66928;52.086;5.240;2023-01-16T14:11:15;2.8;;;1.9;;
50651;SDS011;66928;52.086;5.240;2023-01-16T14:15:10;1.7;;;1.6;;
50651;SDS011;66928;52.086;5.240;2023-01-16T14:16:59;2.21;;;2.0;;
50651;SDS011;66928;52.086;5.240;2023-01-16T14:20:33;2.0;;;1.7;;
50651;SDS011;66928;52.086;5.240;2023-01-16T14:24:06;1.7;;;1.6;;
50651;SDS011;66928;52.086;5.240;2023-01-16T14:26:28;1.9;;;1.6;;
50651;SDS011;66928;52.086;5.240;2023-01-16T14:28:15;1.8;;;1.6;;
50651;SDS011;66928;52.086;5.240;2023-01-16T14:29:55;1.8;;;1.7;;
50651;SDS011;66928;52.086;5.240;2023-01-16T14:31:36;1.5;;;1.4;;
50651;SDS011;66928;52.086;5.240;2023-01-16T14:34:59;1.9;;;1.6;;
50651;SDS011;66928;52.086;5.240;2023-01-16T14:36:38;1.9;;;1.7;;
50651;SDS011;66928;52.086;5.240;2023-01-16T14:38:16;2.1;;;1.7;;
50651;SDS011;66928;52.086;5.240;2023-01-16T14:39:55;1.7;;;1.6;;
50651;SDS011;66928;52.086;5.240;2023-01-16T14:55:14;2.31;;;1.8;;
50651;SDS011;66928;52.086;5.240;2023-01-16T14:56:52;2.0;;;1.8;;
50651;SDS011;66928;52.086;5.240;2023-01-16T15:00:19;2.1;;;1.9;;
50651;SDS011;66928;52.086;5.240;2023-01-16T15:02:33;3.6;;;2.31;;
50651;SDS011;66928;52.086;5.240;2023-01-16T15:04:13;2.0;;;1.8;;
50651;SDS011;66928;52.086;5.240;2023-01-16T15:05:55;2.7;;;1.9;;
50651;SDS011;66928;52.086;5.240;2023-01-16T15:07:35;2.5;;;2.0;;
50651;SDS011;66928;52.086;5.240;2023-01-16T15:09:16;1.7;;;1.6;;
50651;SDS011;66928;52.086;5.240;2023-01-16T15:12:38;2.1;;;1.7;;
50651;SDS011;66928;52.086;5.240;2023-01-16T15:14:33;2.1;;;1.9;;
50651;SDS011;66928;52.086;5.240;2023-01-16T15:16:09;2.21;;;2.0;;
50651;SDS011;66928;52.086;5.240;2023-01-16T15:22:13;2.4;;;2.21;;
50651;SDS011;66928;52.086;5.240;2023-01-16T15:23:54;11.7;;;8.5;;
50651;SDS011;66928;52.086;5.240;2023-01-16T15:27:31;4.2;;;3.1;;
50651;SDS011;66928;52.086;5.240;2023-01-16T15:29:16;4.1;;;3.2;;
50651;SDS011;66928;52.086;5.240;2023-01-16T15:31:10;3.5;;;2.6;;
50651;SDS011;66928;52.086;5.240;2023-01-16T15:32:52;2.9;;;2.6;;
50651;SDS011;66928;52.086;5.240;2023-01-16T15:34:30;2.4;;;2.1;;
50651;SDS011;66928;52.086;5.240;2023-01-16T15:37:53;2.6;;;2.4;;
50651;SDS011;66928;52.086;5.240;2023-01-16T15:39:31;3.0;;;2.7;;
50651;SDS011;66928;52.086;5.240;2023-01-16T15:41:19;2.4;;;2.21;;
50651;SDS011;66928;52.086;5.240;2023-01-16T15:47:12;2.5;;;2.31;;
50651;SDS011;66928;52.086;5.240;2023-01-16T15:50:02;2.5;;;2.31;;
50651;SDS011;66928;52.086;5.240;2023-01-16T15:51:49;3.4;;;2.9;;
50651;SDS011;66928;52.086;5.240;2023-01-16T15:53:29;7.1;;;5.4;;
50651;SDS011;66928;52.086;5.240;2023-01-16T15:55:10;4.61;;;2.5;;
50651;SDS011;66928;52.086;5.240;2023-01-16T15:58:31;4.2;;;3.3;;
50651;SDS011;66928;52.086;5.240;2023-01-16T16:00:20;2.31;;;2.0;;
50651;SDS011;66928;52.086;5.240;2023-01-16T16:02:08;2.1;;;1.9;;
50651;SDS011;66928;52.086;5.240;2023-01-16T16:03:53;2.21;;;2.0;;
50651;SDS011;66928;52.086;5.240;2023-01-16T16:07:08;2.31;;;2.1;;
50651;SDS011;66928;52.086;5.240;2023-01-16T16:08:47;3.0;;;2.7;;
50651;SDS011;66928;52.086;5.240;2023-01-16T16:12:03;2.6;;;2.1;;
50651;SDS011;66928;52.086;5.240;2023-01-16T16:18:14;2.5;;;2.31;;
50651;SDS011;66928;52.086;5.240;2023-01-16T16:21:30;3.6;;;2.6;;
50651;SDS011;66928;52.086;5.240;2023-01-16T16:23:11;3.2;;;2.6;;
50651;SDS011;66928;52.086;5.240;2023-01-16T16:24:51;3.2;;;2.6;;
50651;SDS011;66928;52.086;5.240;2023-01-16T16:28:15;3.3;;;3.0;;
50651;SDS011;66928;52.086;5.240;2023-01-16T16:29:55;3.5;;;3.2;;
50651;SDS011;66928;52.086;5.240;2023-01-16T16:31:32;4.3;;;3.3;;
50651;SDS011;66928;52.086;5.240;2023-01-16T16:33:13;4.1;;;3.7;;
50651;SDS011;66928;52.086;5.240;2023-01-16T16:34:53;4.5;;;4.1;;
50651;SDS011;66928;52.086;5.240;2023-01-16T16:38:22;4.61;;;3.7;;
50651;SDS011;66928;52.086;5.240;2023-01-16T16:40:02;6.9;;;5.4;;
50651;SDS011;66928;52.086;5.240;2023-01-16T16:42:52;5.2;;;4.7;;
50651;SDS011;66928;52.086;5.240;2023-01-16T16:44:33;4.7;;;4.3;;
50651;SDS011;66928;52.086;5.240;2023-01-16T16:46:29;5.11;;;4.41;;
50651;SDS011;66928;52.086;5.240;2023-01-16T16:48:26;4.8;;;4.41;;
50651;SDS011;66928;52.086;5.240;2023-01-16T16:50:39;4.91;;;4.41;;
50651;SDS011;66928;52.086;5.240;2023-01-16T16:52:48;5.11;;;4.61;;
50651;SDS011;66928;52.086;5.240;2023-01-16T16:54:26;5.2;;;4.7;;
50651;SDS011;66928;52.086;5.240;2023-01-16T16:56:06;4.5;;;4.1;;
50651;SDS011;66928;52.086;5.240;2023-01-16T16:59:22;2.6;;;2.4;;
50651;SDS011;66928;52.086;5.240;2023-01-16T17:01:02;3.0;;;2.8;;
50651;SDS011;66928;52.086;5.240;2023-01-16T17:02:38;2.21;;;2.1;;
50651;SDS011;66928;52.086;5.240;2023-01-16T17:04:17;2.31;;;2.1;;
50651;SDS011;66928;52.086;5.240;2023-01-16T17:07:30;2.6;;;2.21;;
50651;SDS011;66928;52.086;5.240;2023-01-16T17:09:08;2.6;;;2.4;;
50651;SDS011;66928;52.086;5.240;2023-01-16T17:10:49;3.3;;;2.7;;
50651;SDS011;66928;52.086;5.240;2023-01-16T17:14:02;3.3;;;3.0;;
50651;SDS011;66928;52.086;5.240;2023-01-16T17:15:39;3.1;;;2.9;;
50651;SDS011;66928;52.086;5.240;2023-01-16T17:17:16;3.1;;;2.9;;
50651;SDS011;66928;52.086;5.240;2023-01-16T17:18:57;2.6;;;2.4;;
50651;SDS011;66928;52.086;5.240;2023-01-16T17:22:14;2.31;;;2.1;;
50651;SDS011;66928;52.086;5.240;2023-01-16T17:23:50;2.9;;;2.7;;
50651;SDS011;66928;52.086;5.240;2023-01-16T17:25:26;2.31;;;2.1;;
50651;SDS011;66928;52.086;5.240;2023-01-16T17:49:21;2.9;;;2.6;;
50651;SDS011;66928;52.086;5.240;2023-01-16T17:50:58;1.9;;;1.8;;
50651;SDS011;66928;52.086;5.240;2023-01-16T17:52:36;1.4;;;1.3;;
50651;SDS011;66928;52.086;5.240;2023-01-16T17:57:29;1.9;;;1.7;;
50651;SDS011;66928;52.086;5.240;2023-01-16T17:59:07;1.8;;;1.7;;
50651;SDS011;66928;52.086;5.240;2023-01-16T18:00:43;2.1;;;1.9;;
50651;SDS011;66928;52.086;5.240;2023-01-16T18:03:58;2.31;;;1.9;;
50651;SDS011;66928;52.086;5.240;2023-01-16T18:05:35;2.4;;;2.21;;
50651;SDS011;66928;52.086;5.240;2023-01-16T18:07:14;2.31;;;2.1;;
50651;SDS011;66928;52.086;5.240;2023-01-16T18:10:28;2.31;;;2.1;;
50651;SDS011;66928;52.086;5.240;2023-01-16T18:17:33;3.0;;;2.7;;
50651;SDS011;66928;52.086;5.240;2023-01-16T18:19:09;3.8;;;2.4;;
50651;SDS011;66928;52.086;5.240;2023-01-16T18:20:46;2.8;;;2.6;;
50651;SDS011;66928;52.086;5.240;2023-01-16T18:22:24;2.6;;;2.4;;
50651;SDS011;66928;52.086;5.240;2023-01-16T18:24:01;3.3;;;3.0;;
50651;SDS011;66928;52.086;5.240;2023-01-16T18:27:16;2.9;;;2.6;;
50651;SDS011;66928;52.086;5.240;2023-01-16T18:28:53;3.1;;;2.8;;
50651;SDS011;66928;52.086;5.240;2023-01-16T18:30:30;3.0;;;2.7;;
50651;SDS011;66928;52.086;5.240;2023-01-16T18:32:23;2.4;;;2.21;;
50651;SDS011;66928;52.086;5.240;2023-01-16T18:35:35;2.8;;;2.31;;
50651;SDS011;66928;52.086;5.240;2023-01-16T18:37:12;2.6;;;1.8;;
50651;SDS011;66928;52.086;5.240;2023-01-16T19:02:30;1.7;;;1.6;;
50651;SDS011;66928;52.086;5.240;2023-01-16T19:04:26;2.21;;;1.8;;
50651;SDS011;66928;52.086;5.240;2023-01-16T19:06:03;1.9;;;1.8;;
50651;SDS011;66928;52.086;5.240;2023-01-16T19:11:00;2.6;;;1.9;;
50651;SDS011;66928;52.086;5.240;2023-01-16T19:12:36;2.6;;;2.31;;
50651;SDS011;66928;52.086;5.240;2023-01-16T19:14:12;3.1;;;2.4;;
50651;SDS011;66928;52.086;5.240;2023-01-16T19:18:33;3.1;;;2.1;;
50651;SDS011;66928;52.086;5.240;2023-01-16T19:20:11;2.7;;;2.0;;
50651;SDS011;66928;52.086;5.240;2023-01-16T19:23:24;3.4;;;2.21;;
50651;SDS011;66928;52.086;5.240;2023-01-16T19:25:00;3.2;;;2.1;;
50651;SDS011;66928;52.086;5.240;2023-01-16T19:26:41;3.1;;;2.31;;
50651;SDS011;66928;52.086;5.240;2023-01-16T19:29:57;2.8;;;2.1;;
50651;SDS011;66928;52.086;5.240;2023-01-16T19:31:33;2.6;;;2.1;;
50651;SDS011;66928;52.086;5.240;2023-01-16T19:33:09;3.2;;;2.21;;
50651;SDS011;66928;52.086;5.240;2023-01-16T19:36:23;3.4;;;2.5;;
50651;SDS011;66928;52.086;5.240;2023-01-16T19:37:59;2.5;;;2.31;;
50651;SDS011;66928;52.086;5.240;2023-01-16T19:46:47;3.1;;;2.6;;
50651;SDS011;66928;52.086;5.240;2023-01-16T19:48:23;2.8;;;2.31;;
50651;SDS011;66928;52.086;5.240;2023-01-16T19:49:59;3.9;;;2.6;;
50651;SDS011;66928;52.086;5.240;2023-01-16T19:51:36;3.0;;;2.21;;
50651;SDS011;66928;52.086;5.240;2023-01-16T19:54:52;3.5;;;1.9;;
50651;SDS011;66928;52.086;5.240;2023-01-16T19:56:28;3.1;;;2.0;;
50651;SDS011;66928;52.086;5.240;2023-01-16T19:58:04;4.2;;;2.31;;
50651;SDS011;66928;52.086;5.240;2023-01-16T20:01:17;4.2;;;2.31;;
50651;SDS011;66928;52.086;5.240;2023-01-16T20:02:54;2.8;;;1.8;;
50651;SDS011;66928;52.086;5.240;2023-01-16T20:04:30;2.6;;;1.7;;
50651;SDS011;66928;52.086;5.240;2023-01-16T20:06:09;2.8;;;1.6;;
50651;SDS011;66928;52.086;5.240;2023-01-16T20:09:21;2.6;;;1.6;;
50651;SDS011;66928;52.086;5.240;2023-01-16T20:10:59;2.5;;;1.7;;
50651;SDS011;66928;52.086;5.240;2023-01-16T20:12:35;2.8;;;2.21;;
50651;SDS011;66928;52.086;5.240;2023-01-16T20:15:48;3.7;;;2.0;;
50651;SDS011;66928;52.086;5.240;2023-01-16T20:17:26;2.6;;;1.8;;
50651;SDS011;66928;52.086;5.240;2023-01-16T20:19:03;2.5;;;1.6;;
50651;SDS011;66928;52.086;5.240;2023-01-16T20:22:15;3.8;;;2.0;;
50651;SDS011;66928;52.086;5.240;2023-01-16T20:23:51;3.1;;;2.1;;
50651;SDS011;66928;52.086;5.240;2023-01-16T20:25:30;3.6;;;1.9;;
50651;SDS011;66928;52.086;5.240;2023-01-16T20:27:09;3.9;;;2.4;;
50651;SDS011;66928;52.086;5.240;2023-01-16T20:30:44;3.6;;;2.4;;
50651;SDS011;66928;52.086;5.240;2023-01-16T20:32:20;4.91;;;2.4;;
50651;SDS011;66928;52.086;5.240;2023-01-16T20:33:56;3.4;;;1.9;;
50651;SDS011;66928;52.086;5.240;2023-01-16T20:35:33;3.9;;;2.31;;
50651;SDS011;66928;52.086;5.240;2023-01-16T20:38:47;4.91;;;2.6;;
50651;SDS011;66928;52.086;5.240;2023-01-16T20:46:09;2.9;;;2.0;;
50651;SDS011;66928;52.086;5.240;2023-01-16T20:49:21;4.2;;;2.0;;
50651;SDS011;66928;52.086;5.240;2023-01-16T20:51:01;3.5;;;1.9;;
50651;SDS011;66928;52.086;5.240;2023-01-16T20:52:39;3.6;;;1.8;;
50651;SDS011;66928;52.086;5.240;2023-01-16T20:54:16;3.1;;;1.7;;
50651;SDS011;66928;52.086;5.240;2023-01-16T20:57:30;2.6;;;1.7;;
50651;SDS011;66928;52.086;5.240;2023-01-16T20:59:08;1.7;;;1.3;;
50651;SDS011;66928;52.086;5.240;2023-01-16T21:00:45;4.91;;;1.6;;
50651;SDS011;66928;52.086;5.240;2023-01-16T21:03:58;2.4;;;1.5;;
50651;SDS011;66928;52.086;5.240;2023-01-16T21:05:35;2.5;;;1.6;;
50651;SDS011;66928;52.086;5.240;2023-01-16T21:07:12;2.6;;;1.3;;
50651;SDS011;66928;52.086;5.240;2023-01-16T21:10:24;3.3;;;1.5;;
50651;SDS011;66928;52.086;5.240;2023-01-16T21:14:21;3.3;;;1.5;;
50651;SDS011;66928;52.086;5.240;2023-01-16T21:22:14;3.0;;;1.5;;
50651;SDS011;66928;52.086;5.240;2023-01-16T21:23:52;2.7;;;1.8;;
50651;SDS011;66928;52.086;5.240;2023-01-16T21:27:04;2.6;;;1.6;;
50651;SDS011;66928;52.086;5.240;2023-01-16T21:28:41;2.7;;;1.4;;
50651;SDS011;66928;52.086;5.240;2023-01-16T21:30:18;3.5;;;1.6;;
50651;SDS011;66928;52.086;5.240;2023-01-16T21:31:56;2.31;;;1.2;;
50651;SDS011;66928;52.086;5.240;2023-01-16T21:35:08;1.7;;;1.0;;
50651;SDS011;66928;52.086;5.240;2023-01-16T21:36:49;1.6;;;1.3;;
50651;SDS011;66928;52.086;5.240;2023-01-16T21:38:26;2.4;;;1.4;;
50651;SDS011;66928;52.086;5.240;2023-01-16T21:46:35;3.2;;;1.3;;
50651;SDS011;66928;52.086;5.240;2023-01-16T21:48:14;3.1;;;1.3;;
50651;SDS011;66928;52.086;5.240;2023-01-16T21:49:53;1.7;;;1.2;;
50651;SDS011;66928;52.086;5.240;2023-01-16T21:51:29;1.8;;;1.2;;
50651;SDS011;66928;52.086;5.240;2023-01-16T21:53:07;2.7;;;1.3;;
50651;SDS011;66928;52.086;5.240;2023-01-16T21:56:20;1.6;;;1.11;;
50651;SDS011;66928;52.086;5.240;2023-01-16T21:57:57;1.8;;;1.3;;
50651;SDS011;66928;52.086;5.240;2023-01-16T21:59:34;2.21;;;1.11;;
50651;SDS011;66928;52.086;5.240;2023-01-16T22:02:48;2.1;;;1.4;;
50651;SDS011;66928;52.086;5.240;2023-01-16T22:04:24;1.8;;;1.3;;
50651;SDS011;66928;52.086;5.240;2023-01-16T22:06:01;2.4;;;1.6;;
50651;SDS011;66928;52.086;5.240;2023-01-16T22:07:38;2.6;;;1.6;;
50651;SDS011;66928;52.086;5.240;2023-01-16T22:19:23;2.4;;;1.4;;
50651;SDS011;66928;52.086;5.240;2023-01-16T22:21:06;2.4;;;1.2;;
50651;SDS011;66928;52.086;5.240;2023-01-16T22:22:48;3.2;;;1.4;;
50651;SDS011;66928;52.086;5.240;2023-01-16T22:24:25;3.3;;;1.3;;
50651;SDS011;66928;52.086;5.240;2023-01-16T22:27:39;2.8;;;1.3;;
50651;SDS011;66928;52.086;5.240;2023-01-16T22:29:15;3.3;;;1.5;;
50651;SDS011;66928;52.086;5.240;2023-01-16T22:30:52;3.3;;;1.3;;
50651;SDS011;66928;52.086;5.240;2023-01-16T22:34:06;4.2;;;1.5;;
50651;SDS011;66928;52.086;5.240;2023-01-16T22:35:42;2.8;;;1.3;;
50651;SDS011;66928;52.086;5.240;2023-01-16T22:37:19;2.4;;;1.5;;
50651;SDS011;66928;52.086;5.240;2023-01-16T22:38:56;4.61;;;1.5;;
50651;SDS011;66928;52.086;5.240;2023-01-16T22:42:09;4.7;;;1.7;;
50651;SDS011;66928;52.086;5.240;2023-01-16T22:47:55;5.3;;;1.6;;
50651;SDS011;66928;52.086;5.240;2023-01-16T22:49:31;2.7;;;1.4;;
50651;SDS011;66928;52.086;5.240;2023-01-16T22:52:46;3.5;;;1.5;;
50651;SDS011;66928;52.086;5.240;2023-01-16T22:54:22;4.3;;;1.7;;
50651;SDS011;66928;52.086;5.240;2023-01-16T22:55:58;3.7;;;1.6;;
50651;SDS011;66928;52.086;5.240;2023-01-16T22:59:11;5.3;;;1.8;;